createdAt,value
2018-03-19T00:01:12.476Z,81.60
2018-03-19T00:03:40.024Z,80.58
2018-03-19T00:06:07.574Z,80.50
2018-03-19T00:08:35.152Z,80.28
2018-03-19T00:11:02.703Z,80.50
2018-03-19T00:13:30.246Z,80.68
2018-03-19T00:15:57.820Z,80.90
2018-03-19T00:18:25.357Z,80.61
2018-03-19T00:20:52.907Z,81.27
2018-03-19T00:23:20.630Z,82.26
2018-03-19T00:25:48.175Z,83.26
2018-03-19T00:28:15.728Z,84.11
2018-03-19T00:30:43.305Z,82.88
2018-03-19T00:33:10.859Z,84.15
2018-03-19T00:35:38.421Z,84.68
2018-03-19T00:38:06.159Z,84.77
2018-03-19T00:40:33.743Z,84.42
2018-03-19T00:43:01.331Z,85.14
2018-03-19T00:45:29.030Z,85.30
2018-03-19T00:47:56.603Z,84.88
2018-03-19T00:50:24.151Z,85.24
2018-03-19T00:52:51.749Z,85.31
2018-03-19T00:55:19.304Z,85.88
2018-03-19T00:57:46.854Z,86.11
2018-03-19T01:00:14.574Z,85.57
2018-03-19T01:02:42.122Z,85.76
2018-03-19T01:05:09.675Z,85.89
2018-03-19T01:07:37.399Z,85.37
2018-03-19T01:10:04.970Z,85.61
2018-03-19T01:12:32.511Z,85.61
2018-03-19T01:15:00.393Z,85.37
2018-03-19T01:17:27.937Z,84.96
2018-03-19T01:19:55.480Z,85.42
2018-03-19T01:22:23.095Z,85.82
2018-03-19T01:24:50.658Z,85.45
2018-03-19T01:27:18.216Z,85.72
2018-03-19T01:29:46.036Z,85.21
2018-03-19T01:32:13.613Z,84.78
2018-03-19T01:34:41.156Z,84.97
2018-03-19T01:37:08.733Z,86.00
2018-03-19T01:39:36.274Z,85.55
2018-03-19T01:42:03.825Z,85.27
2018-03-19T01:44:31.558Z,85.30
2018-03-19T01:46:59.106Z,84.96
2018-03-19T01:49:26.654Z,85.30
2018-03-19T01:51:54.247Z,85.54
2018-03-19T01:54:21.805Z,85.44
2018-03-19T01:56:49.356Z,85.07
2018-03-19T01:59:16.930Z,86.08
2018-03-19T02:01:44.489Z,86.14
2018-03-19T02:04:12.029Z,85.72
2018-03-19T02:06:39.737Z,85.61
2018-03-19T02:09:07.332Z,86.02
2018-03-19T02:11:34.901Z,86.39
2018-03-19T02:14:02.508Z,86.71
2018-03-19T02:16:30.043Z,87.48
2018-03-19T02:18:57.586Z,87.12
2018-03-19T02:21:25.159Z,87.43
2018-03-19T02:23:52.703Z,86.94
2018-03-19T02:26:20.246Z,86.77
2018-03-19T02:28:47.839Z,86.47
2018-03-19T02:31:15.384Z,86.82
2018-03-19T02:33:42.951Z,86.48
2018-03-19T02:36:10.529Z,86.36
2018-03-19T02:38:38.083Z,86.36
2018-03-19T02:41:05.636Z,87.04
2018-03-19T02:43:33.232Z,87.46
2018-03-19T02:46:00.782Z,87.49
2018-03-19T02:48:28.334Z,87.81
2018-03-19T02:50:56.042Z,87.46
2018-03-19T02:53:23.598Z,87.70
2018-03-19T02:55:51.141Z,87.83
2018-03-19T02:58:18.991Z,87.92
2018-03-19T03:00:46.551Z,88.11
2018-03-19T03:03:14.110Z,87.81
2018-03-19T03:05:41.683Z,87.67
2018-03-19T03:08:09.229Z,87.71
2018-03-19T03:10:36.769Z,87.84
2018-03-19T03:13:04.649Z,88.07
2018-03-19T03:15:32.180Z,88.28
2018-03-19T03:17:59.727Z,88.43
2018-03-19T03:20:27.304Z,88.93
2018-03-19T03:22:54.881Z,89.17
2018-03-19T03:25:22.423Z,89.09
2018-03-19T03:27:50.029Z,89.06
2018-03-19T03:30:17.585Z,88.81
2018-03-19T03:32:45.133Z,88.47
2018-03-19T03:35:12.731Z,88.62
2018-03-19T03:37:40.284Z,88.50
2018-03-19T03:40:07.839Z,88.30
2018-03-19T03:42:35.570Z,88.02
2018-03-19T03:45:03.135Z,87.94
2018-03-19T03:47:30.695Z,88.19
2018-03-19T03:49:58.423Z,88.11
2018-03-19T03:52:25.972Z,88.03
2018-03-19T03:54:53.560Z,87.60
2018-03-19T03:57:21.135Z,87.65
2018-03-19T03:59:48.683Z,87.53
2018-03-19T04:02:16.238Z,87.45
2018-03-19T04:04:43.967Z,87.64
2018-03-19T04:07:11.521Z,87.58
2018-03-19T04:09:39.067Z,87.41
2018-03-19T04:12:06.643Z,87.59
2018-03-19T04:14:34.181Z,87.88
2018-03-19T04:17:01.813Z,88.77
2018-03-19T04:19:29.338Z,89.03
2018-03-19T04:21:56.898Z,88.99
2018-03-19T04:24:24.449Z,89.46
2018-03-19T04:26:52.030Z,89.54
2018-03-19T04:29:19.642Z,90.23
2018-03-19T04:31:47.196Z,90.24
2018-03-19T04:34:14.778Z,90.34
2018-03-19T04:36:42.343Z,90.17
2018-03-19T04:39:09.894Z,90.25
2018-03-19T04:41:37.498Z,90.50
2018-03-19T04:44:05.048Z,91.19
2018-03-19T04:46:32.619Z,91.40
2018-03-19T04:49:00.295Z,91.24
2018-03-19T04:51:27.871Z,91.09
2018-03-19T04:53:55.435Z,90.97
2018-03-19T04:56:22.980Z,91.19
2018-03-19T04:58:50.544Z,91.48
2018-03-19T05:01:18.119Z,91.60
2018-03-19T05:03:45.663Z,91.30
2018-03-19T05:06:13.228Z,91.02
2018-03-19T05:08:40.961Z,91.22
2018-03-19T05:11:08.522Z,91.00
2018-03-19T05:13:36.134Z,90.59
2018-03-19T05:16:03.866Z,90.39
2018-03-19T05:18:31.432Z,90.14
2018-03-19T05:20:58.991Z,90.22
2018-03-19T05:23:26.565Z,89.97
2018-03-19T05:25:54.124Z,89.62
2018-03-19T05:28:21.783Z,89.39
2018-03-19T05:30:49.454Z,88.68
2018-03-19T05:33:17.010Z,88.51
2018-03-19T05:35:44.599Z,87.86
2018-03-19T05:38:12.207Z,87.40
2018-03-19T05:40:39.784Z,87.20
2018-03-19T05:43:07.343Z,86.92
2018-03-19T05:45:35.075Z,86.81
2018-03-19T05:48:02.621Z,86.59
2018-03-19T05:50:30.166Z,86.91
2018-03-19T05:52:57.745Z,86.45
2018-03-19T05:55:25.295Z,86.16
2018-03-19T05:57:52.863Z,86.36
2018-03-19T06:00:20.616Z,86.23
2018-03-19T06:02:48.175Z,87.33
2018-03-19T06:05:15.725Z,87.05
2018-03-19T06:07:43.422Z,87.21
2018-03-19T06:10:10.963Z,87.27
2018-03-19T06:12:38.518Z,85.35
2018-03-19T06:15:06.455Z,84.97
2018-03-19T06:17:34.008Z,84.13
2018-03-19T06:20:01.602Z,83.45
2018-03-19T06:22:29.327Z,83.09
2018-03-19T06:24:56.879Z,82.79
2018-03-19T06:27:24.426Z,83.28
2018-03-19T06:29:52.028Z,82.84
2018-03-19T06:32:19.569Z,82.61
2018-03-19T06:34:47.114Z,81.79
2018-03-19T06:37:14.849Z,82.29
2018-03-19T06:39:42.408Z,82.39
2018-03-19T06:42:09.958Z,82.48
2018-03-19T06:44:37.719Z,81.76
2018-03-19T06:47:05.255Z,81.82
2018-03-19T06:49:32.811Z,81.12
2018-03-19T06:52:00.767Z,80.84
2018-03-19T06:54:28.305Z,81.40
2018-03-19T06:56:55.859Z,79.89
2018-03-19T06:59:23.604Z,80.34
2018-03-19T07:01:51.150Z,79.47
2018-03-19T07:04:18.706Z,78.31
2018-03-19T07:06:46.370Z,78.01
2018-03-19T07:09:13.926Z,78.35
2018-03-19T07:11:41.466Z,77.79
2018-03-19T07:14:09.046Z,77.24
2018-03-19T07:16:36.588Z,76.22
2018-03-19T07:19:04.154Z,76.03
2018-03-19T07:21:31.722Z,76.22
2018-03-19T07:23:59.263Z,75.70
2018-03-19T07:26:26.857Z,76.47
2018-03-19T07:28:54.511Z,75.91
2018-03-19T07:31:22.054Z,74.95
2018-03-19T07:33:49.628Z,74.68
2018-03-19T07:36:17.367Z,74.53
2018-03-19T07:38:44.910Z,73.41
2018-03-19T07:41:12.470Z,71.64
2018-03-19T07:43:40.185Z,71.00
2018-03-19T07:46:07.730Z,70.64
2018-03-19T07:48:35.316Z,70.55
2018-03-19T07:51:02.913Z,70.29
2018-03-19T07:53:30.473Z,69.95
2018-03-19T07:55:58.012Z,69.61
2018-03-19T07:58:25.582Z,70.36
2018-03-19T08:00:53.138Z,70.11
2018-03-19T08:03:20.678Z,71.32
2018-03-19T08:05:48.411Z,70.46
2018-03-19T08:08:15.922Z,69.28
2018-03-19T08:10:43.460Z,69.61
2018-03-19T08:13:11.035Z,70.18
2018-03-19T08:15:38.585Z,69.01
2018-03-19T08:18:06.127Z,68.40
2018-03-19T08:20:33.716Z,67.72
2018-03-19T08:23:01.266Z,68.93
2018-03-19T08:25:28.831Z,67.52
2018-03-19T08:27:56.551Z,67.33
2018-03-19T08:30:24.130Z,66.96
2018-03-19T08:32:51.692Z,67.72
2018-03-19T08:35:19.372Z,66.95
2018-03-19T08:37:46.900Z,67.13
2018-03-19T08:40:14.435Z,67.39
2018-03-19T08:42:42.355Z,67.36
2018-03-19T08:45:09.905Z,67.92
2018-03-19T08:47:37.453Z,66.82
2018-03-19T08:50:05.053Z,66.52
2018-03-19T08:52:32.597Z,66.10
2018-03-19T08:55:00.150Z,67.25
2018-03-19T08:57:27.704Z,66.75
2018-03-19T08:59:55.242Z,65.85
2018-03-19T09:02:22.821Z,65.60
2018-03-19T09:04:50.358Z,65.75
2018-03-19T09:07:17.964Z,66.21
2018-03-19T09:09:45.623Z,63.80
2018-03-19T09:12:13.162Z,63.33
2018-03-19T09:14:40.704Z,64.76
2018-03-19T09:17:08.283Z,61.72
2018-03-19T09:19:35.822Z,62.11
2018-03-19T09:22:03.362Z,62.07
2018-03-19T09:24:31.082Z,62.28
2018-03-19T09:26:58.631Z,63.06
2018-03-19T09:29:26.214Z,61.97
2018-03-19T09:31:53.907Z,63.21
2018-03-19T09:34:21.465Z,63.02
2018-03-19T09:36:48.999Z,63.78
2018-03-19T09:39:16.738Z,63.67
2018-03-19T09:41:44.278Z,64.62
2018-03-19T09:44:11.817Z,64.10
2018-03-19T09:46:39.529Z,63.56
2018-03-19T09:49:07.071Z,62.66
2018-03-19T09:51:34.614Z,63.07
2018-03-19T09:54:02.199Z,62.47
2018-03-19T09:56:29.739Z,63.69
2018-03-19T09:58:57.290Z,64.71
2018-03-19T10:01:25.010Z,64.46
2018-03-19T10:03:52.562Z,62.17
2018-03-19T10:06:20.129Z,62.38
2018-03-19T10:08:47.995Z,62.53
2018-03-19T10:11:15.559Z,62.60
2018-03-19T10:13:43.099Z,63.72
2018-03-19T10:16:10.704Z,63.22
2018-03-19T10:18:38.277Z,62.90
2018-03-19T10:21:05.820Z,63.25
2018-03-19T10:23:33.403Z,63.69
2018-03-19T10:26:00.953Z,63.38
2018-03-19T10:28:28.510Z,63.94
2018-03-19T10:30:56.095Z,64.98
2018-03-19T10:33:23.652Z,62.20
2018-03-19T10:35:51.198Z,62.94
2018-03-19T10:38:18.874Z,63.64
2018-03-19T10:40:46.416Z,61.61
2018-03-19T10:43:13.954Z,62.58
2018-03-19T10:45:41.551Z,63.08
2018-03-19T10:48:09.095Z,63.25
2018-03-19T10:50:36.629Z,61.86
2018-03-19T10:53:04.298Z,61.80
2018-03-19T10:55:31.842Z,61.34
2018-03-19T10:57:59.378Z,62.28
2018-03-19T11:00:26.952Z,62.30
2018-03-19T11:02:54.568Z,62.76
2018-03-19T11:05:27.710Z,63.07
2018-03-19T11:08:00.877Z,63.46
2018-03-19T11:10:28.460Z,64.12
2018-03-19T11:12:56.001Z,63.33
2018-03-19T11:15:23.543Z,62.85
2018-03-19T11:17:51.243Z,62.97
2018-03-19T11:20:19.694Z,63.29
2018-03-19T11:22:47.242Z,62.52
2018-03-19T11:25:14.963Z,62.43
2018-03-19T11:27:42.515Z,62.71
2018-03-19T11:30:10.109Z,61.99
2018-03-19T11:32:37.833Z,61.71
2018-03-19T11:35:05.376Z,61.94
2018-03-19T11:37:32.936Z,63.45
2018-03-19T11:40:00.598Z,63.80
2018-03-19T11:42:28.152Z,64.29
2018-03-19T11:44:55.688Z,64.82
2018-03-19T11:47:23.369Z,64.09
2018-03-19T11:49:50.915Z,63.31
2018-03-19T11:52:18.459Z,63.13
2018-03-19T11:54:46.053Z,63.80
2018-03-19T11:57:14.043Z,63.46
2018-03-19T11:59:41.603Z,64.45
2018-03-19T12:02:09.294Z,64.43
2018-03-19T12:04:36.848Z,65.41
2018-03-19T12:07:04.395Z,65.63
2018-03-19T12:09:31.959Z,65.54
2018-03-19T12:11:59.492Z,66.37
2018-03-19T12:14:27.023Z,65.93
2018-03-19T12:16:54.597Z,67.19
2018-03-19T12:19:22.167Z,68.31
2018-03-19T12:21:49.711Z,68.13
2018-03-19T12:24:18.458Z,68.79
2018-03-19T12:26:45.996Z,69.06
2018-03-19T12:29:13.558Z,69.69
2018-03-19T12:31:41.144Z,69.42
2018-03-19T12:34:08.704Z,69.44
2018-03-19T12:36:36.297Z,70.22
2018-03-19T12:39:04.056Z,70.50
2018-03-19T12:41:31.597Z,71.07
2018-03-19T12:43:59.143Z,71.09
2018-03-19T12:46:26.729Z,71.53
2018-03-19T12:48:54.296Z,71.40
2018-03-19T12:51:21.863Z,71.66
2018-03-19T12:53:49.454Z,71.92
2018-03-19T12:56:17.034Z,72.22
2018-03-19T12:58:44.576Z,72.07
2018-03-19T13:01:12.179Z,72.50
2018-03-19T13:03:39.747Z,72.10
2018-03-19T13:06:07.286Z,73.47
2018-03-19T13:08:34.890Z,74.14
2018-03-19T13:11:02.433Z,74.38
2018-03-19T13:13:30.275Z,74.60
2018-03-19T13:15:57.853Z,75.70
2018-03-19T13:18:25.395Z,75.76
2018-03-19T13:20:52.989Z,76.15
2018-03-19T13:23:20.587Z,76.09
2018-03-19T13:25:48.134Z,75.57
2018-03-19T13:28:15.677Z,74.92
2018-03-19T13:30:43.309Z,74.66
2018-03-19T13:33:10.870Z,74.91
2018-03-19T13:35:38.432Z,74.68
2018-03-19T13:38:06.165Z,74.64
2018-03-19T13:40:33.716Z,73.97
2018-03-19T13:43:01.270Z,74.50
2018-03-19T13:45:28.850Z,75.05
2018-03-19T13:47:56.394Z,74.67
2018-03-19T13:50:23.955Z,74.69
2018-03-19T13:52:51.640Z,74.88
2018-03-19T13:55:19.211Z,75.01
2018-03-19T13:57:46.767Z,75.59
2018-03-19T14:00:14.370Z,75.01
2018-03-19T14:02:41.916Z,75.07
2018-03-19T14:05:09.468Z,76.47
2018-03-19T14:07:37.343Z,77.90
2018-03-19T14:10:04.908Z,79.42
2018-03-19T14:12:32.464Z,80.08
2018-03-19T14:15:00.173Z,80.45
2018-03-19T14:17:27.724Z,81.13
2018-03-19T14:19:55.276Z,80.69
2018-03-19T14:22:22.972Z,81.59
2018-03-19T14:24:50.513Z,82.01
2018-03-19T14:27:18.054Z,82.96
2018-03-19T14:29:45.661Z,84.15
2018-03-19T14:32:13.203Z,83.77
2018-03-19T14:34:40.751Z,84.92
2018-03-19T14:37:08.337Z,85.46
2018-03-19T14:39:35.874Z,85.68
2018-03-19T14:42:03.430Z,84.87
2018-03-19T14:44:31.003Z,85.39
2018-03-19T14:46:58.574Z,85.76
2018-03-19T14:49:26.129Z,85.18
2018-03-19T14:51:53.848Z,85.61
2018-03-19T14:54:21.390Z,86.73
2018-03-19T14:56:48.935Z,86.23
2018-03-19T14:59:18.097Z,85.48
2018-03-19T15:01:45.643Z,86.43
2018-03-19T15:04:13.207Z,85.69
2018-03-19T15:06:41.121Z,85.91
2018-03-19T15:09:08.656Z,85.60
2018-03-19T15:11:36.229Z,85.04
2018-03-19T15:14:03.845Z,86.10
2018-03-19T15:16:31.389Z,86.37
2018-03-19T15:18:58.966Z,86.87
2018-03-19T15:21:26.654Z,85.77
2018-03-19T15:23:54.198Z,86.21
2018-03-19T15:26:21.764Z,86.14
2018-03-19T15:28:49.350Z,86.61
2018-03-19T15:31:16.956Z,86.74
2018-03-19T15:33:44.491Z,87.25
2018-03-19T15:36:12.203Z,86.89
2018-03-19T15:38:39.767Z,87.56
2018-03-19T15:41:07.323Z,87.15
2018-03-19T15:43:35.041Z,87.33
2018-03-19T15:46:02.588Z,86.86
2018-03-19T15:48:30.139Z,87.51
2018-03-19T15:50:57.729Z,87.36
2018-03-19T15:53:25.273Z,87.44
2018-03-19T15:55:52.831Z,87.33
2018-03-19T15:58:20.380Z,87.25
2018-03-19T16:00:47.922Z,87.06
2018-03-19T16:03:15.506Z,87.39
2018-03-19T16:05:43.080Z,86.41
2018-03-19T16:08:10.615Z,86.49
2018-03-19T16:10:38.328Z,86.79
2018-03-19T16:13:05.871Z,87.26
2018-03-19T16:15:33.425Z,87.69
2018-03-19T16:18:01.014Z,87.46
2018-03-19T16:20:28.590Z,87.12
2018-03-19T16:22:56.122Z,87.80
2018-03-19T16:25:23.698Z,87.57
2018-03-19T16:27:51.298Z,87.21
2018-03-19T16:30:18.827Z,87.24
2018-03-19T16:32:46.412Z,87.19
2018-03-19T16:35:13.958Z,86.48
2018-03-19T16:37:41.503Z,86.63
2018-03-19T16:40:09.083Z,87.07
2018-03-19T16:42:36.640Z,87.39
2018-03-19T16:45:04.215Z,87.05
2018-03-19T16:47:31.803Z,86.95
2018-03-19T16:49:59.358Z,87.53
2018-03-19T16:52:26.922Z,87.77
2018-03-19T16:54:54.610Z,87.63
2018-03-19T16:57:22.161Z,86.62
2018-03-19T16:59:49.714Z,87.20
2018-03-19T17:02:17.617Z,86.89
2018-03-19T17:04:45.176Z,86.54
2018-03-19T17:07:12.744Z,86.87
2018-03-19T17:09:40.458Z,86.43
2018-03-19T17:12:08.025Z,86.81
2018-03-19T17:14:35.584Z,86.81
2018-03-19T17:17:03.170Z,87.12
2018-03-19T17:19:30.744Z,87.14
2018-03-19T17:21:58.307Z,87.44
2018-03-19T17:24:25.903Z,87.96
2018-03-19T17:26:53.455Z,88.23
2018-03-19T17:29:21.034Z,88.02
2018-03-19T17:31:48.723Z,87.95
2018-03-19T17:34:16.291Z,88.24
2018-03-19T17:36:43.856Z,88.37
2018-03-19T17:39:11.575Z,88.53
2018-03-19T17:41:39.140Z,89.02
2018-03-19T17:44:06.702Z,89.06
2018-03-19T17:46:34.331Z,89.07
2018-03-19T17:49:01.877Z,89.35
2018-03-19T17:51:29.443Z,89.32
2018-03-19T17:53:57.175Z,89.07
2018-03-19T17:56:24.724Z,88.72
2018-03-19T17:58:52.296Z,88.23
2018-03-19T18:01:20.049Z,87.94
2018-03-19T18:03:47.591Z,88.05
2018-03-19T18:06:15.143Z,88.57
2018-03-19T18:08:42.736Z,88.59
2018-03-19T18:11:10.274Z,88.21
2018-03-19T18:13:37.835Z,88.30
2018-03-19T18:16:05.712Z,88.51
2018-03-19T18:18:33.256Z,87.79
2018-03-19T18:21:00.799Z,87.58
2018-03-19T18:23:28.482Z,87.78
2018-03-19T18:25:56.069Z,87.69
2018-03-19T18:28:23.600Z,87.68
2018-03-19T18:30:51.319Z,88.24
2018-03-19T18:33:18.871Z,88.14
2018-03-19T18:35:46.490Z,87.77
2018-03-19T18:38:14.103Z,87.46
2018-03-19T18:40:41.660Z,86.99
2018-03-19T18:43:09.230Z,87.27
2018-03-19T18:45:36.964Z,87.45
2018-03-19T18:48:04.530Z,87.65
2018-03-19T18:50:32.088Z,87.77
2018-03-19T18:52:59.682Z,87.61
2018-03-19T18:55:27.242Z,87.13
2018-03-19T18:57:54.796Z,87.50
2018-03-19T19:00:22.548Z,87.35
2018-03-19T19:02:50.200Z,87.57
2018-03-19T19:05:17.763Z,87.54
2018-03-19T19:07:45.515Z,87.19
2018-03-19T19:10:13.082Z,87.29
2018-03-19T19:12:40.730Z,86.60
2018-03-19T19:15:08.495Z,86.57
2018-03-19T19:17:36.067Z,85.77
2018-03-19T19:20:03.715Z,85.62
2018-03-19T19:22:31.276Z,86.25
2018-03-19T19:24:58.819Z,86.12
2018-03-19T19:27:26.361Z,85.68
2018-03-19T19:29:54.003Z,86.01
2018-03-19T19:32:21.571Z,86.40
2018-03-19T19:34:49.124Z,85.73
2018-03-19T19:37:16.714Z,85.79
2018-03-19T19:39:44.262Z,85.46
2018-03-19T19:42:11.815Z,86.33
2018-03-19T19:44:39.677Z,85.46
2018-03-19T19:47:07.230Z,85.83
2018-03-19T19:49:34.796Z,85.69
2018-03-19T19:52:02.689Z,85.40
2018-03-19T19:54:30.229Z,85.03
2018-03-19T19:56:57.775Z,85.21
2018-03-19T19:59:25.520Z,85.17
2018-03-19T20:01:53.067Z,84.57
2018-03-19T20:04:20.622Z,84.79
2018-03-19T20:06:48.207Z,85.55
2018-03-19T20:09:15.750Z,84.05
2018-03-19T20:11:43.332Z,84.07
2018-03-19T20:14:11.245Z,82.72
2018-03-19T20:16:38.787Z,82.71
2018-03-19T20:19:06.327Z,83.09
2018-03-19T20:21:34.221Z,83.11
2018-03-19T20:24:01.771Z,83.49
2018-03-19T20:26:29.325Z,83.46
2018-03-19T20:28:57.003Z,83.08
2018-03-19T20:31:24.539Z,83.85
2018-03-19T20:33:52.091Z,83.41
2018-03-19T20:36:19.701Z,83.48
2018-03-19T20:38:47.251Z,83.17
2018-03-19T20:41:14.794Z,83.54
2018-03-19T20:43:42.515Z,83.89
2018-03-19T20:46:10.091Z,84.34
2018-03-19T20:48:37.655Z,84.35
2018-03-19T20:51:05.245Z,84.25
2018-03-19T20:53:32.803Z,84.84
2018-03-19T20:56:00.348Z,84.66
2018-03-19T20:58:27.891Z,84.66
2018-03-19T21:00:55.451Z,84.99
2018-03-19T21:03:23.175Z,85.61
2018-03-19T21:05:50.735Z,85.70
2018-03-19T21:08:18.299Z,85.88
2018-03-19T21:10:46.172Z,85.26
2018-03-19T21:13:13.720Z,85.40
2018-03-19T21:15:41.267Z,85.85
2018-03-19T21:18:08.871Z,86.19
2018-03-19T21:20:36.420Z,85.76
2018-03-19T21:23:03.986Z,86.02
2018-03-19T21:25:31.569Z,85.89
2018-03-19T21:27:59.188Z,85.29
2018-03-19T21:30:26.786Z,85.42
2018-03-19T21:32:54.390Z,85.21
2018-03-19T21:35:21.964Z,84.87
2018-03-19T21:37:49.530Z,85.30
2018-03-19T21:40:17.119Z,85.05
2018-03-19T21:42:44.658Z,85.00
2018-03-19T21:45:12.219Z,84.82
2018-03-19T21:47:39.983Z,84.22
2018-03-19T21:50:07.560Z,84.41
2018-03-19T21:52:35.110Z,84.84
2018-03-19T21:55:03.010Z,84.26
2018-03-19T21:57:30.564Z,84.69
2018-03-19T21:59:58.111Z,83.37
2018-03-19T22:02:25.685Z,83.57
2018-03-19T22:04:53.232Z,83.86
2018-03-19T22:07:20.795Z,83.46
2018-03-19T22:09:48.483Z,82.66
2018-03-19T22:12:16.054Z,82.39
2018-03-19T22:14:43.607Z,82.61
2018-03-19T22:17:11.206Z,82.61
2018-03-19T22:19:38.746Z,83.35
2018-03-19T22:22:06.293Z,82.99
2018-03-19T22:24:34.158Z,81.35
2018-03-19T22:27:01.706Z,80.95
2018-03-19T22:29:29.246Z,81.81
2018-03-19T22:31:56.939Z,81.48
2018-03-19T22:34:24.511Z,81.36
2018-03-19T22:36:52.058Z,81.28
2018-03-19T22:39:19.655Z,81.54
2018-03-19T22:41:47.198Z,81.56
2018-03-19T22:44:14.746Z,81.63
2018-03-19T22:46:42.314Z,82.17
2018-03-19T22:49:09.864Z,81.42
2018-03-19T22:51:37.391Z,82.59
2018-03-19T22:54:04.961Z,82.86
2018-03-19T22:56:32.512Z,81.97
2018-03-19T22:59:00.051Z,81.63
2018-03-19T23:01:27.822Z,81.93
2018-03-19T23:03:55.364Z,81.77
2018-03-19T23:06:22.912Z,81.72
2018-03-19T23:08:50.493Z,82.22
2018-03-19T23:11:18.098Z,82.02
2018-03-19T23:13:45.639Z,81.80
2018-03-19T23:16:13.207Z,82.03
2018-03-19T23:18:40.754Z,82.00
2018-03-19T23:21:08.294Z,82.10
2018-03-19T23:23:35.877Z,82.24
2018-03-19T23:26:03.429Z,82.07
2018-03-19T23:28:30.980Z,82.34
2018-03-19T23:30:58.603Z,81.75
2018-03-19T23:33:26.159Z,81.78
2018-03-19T23:35:53.950Z,82.40
2018-03-19T23:38:21.669Z,83.10
2018-03-19T23:40:49.251Z,83.67
2018-03-19T23:43:16.807Z,84.32
2018-03-19T23:45:44.494Z,84.50
2018-03-19T23:48:12.021Z,84.62
2018-03-19T23:50:39.550Z,84.24
2018-03-19T23:53:07.123Z,84.03
2018-03-19T23:55:34.667Z,84.03
2018-03-19T23:58:02.215Z,84.16
